Time;durP1;ratioP1;P1;durP2;ratioP2;P2;SDS_P1;SDS_P2;PMS_P1;PMS_P2;Temp;Humidity;BMP_temperature;BMP_pressure;BME280_temperature;BME280_humidity;BME280_pressure;Samples;Min_cycle;Max_cycle;Signal;HPM_P1;HPM_P2
2024/03/29 00:07:25;;;;;;;;;;;5.30;99.90;;;;;;21107354;28;19913;-79
2024/03/29 00:17:25;;;;;;;;;;;5.30;99.90;;;;;;21101054;28;20000;-76
2024/03/29 00:27:28;;;;;;;;;;;5.30;99.90;;;;;;21114123;28;19919;-79
2024/03/29 00:37:28;;;;;;;;;;;5.10;99.90;;;;;;21105237;28;19916;-78
2024/03/29 00:47:29;;;;;;;;;;;4.70;99.90;;;;;;21093740;28;20424;-78
2024/03/29 00:57:30;;;;;;;;;;;4.70;99.90;;;;;;21085871;28;19920;-79
2024/03/29 01:07:30;;;;;;;;;;;4.70;99.90;;;;;;21107570;28;19959;-78
2024/03/29 01:17:31;;;;;;;;;;;4.50;99.90;;;;;;21108621;28;19923;-78
2024/03/29 01:27:31;;;;;;;;;;;4.60;99.90;;;;;;21103027;28;19919;-78
2024/03/29 01:37:32;;;;;;;;;;;4.40;99.90;;;;;;21102391;28;20405;-79
2024/03/29 01:47:33;;;;;;;;;;;4.40;99.90;;;;;;21100737;28;19956;-78
2024/03/29 01:57:33;;;;;;;;;;;4.30;99.90;;;;;;21102261;28;20060;-79
2024/03/29 02:07:35;;;;;;;;;;;4.30;99.90;;;;;;21099490;28;19912;-77
2024/03/29 02:17:35;;;;;;;;;;;4.30;99.90;;;;;;21097848;28;19916;-78
2024/03/29 02:27:36;;;;;;;;;;;3.80;99.90;;;;;;21093362;28;20432;-79
2024/03/29 02:37:37;;;;;;;;;;;3.60;99.90;;;;;;21101270;28;19916;-77
2024/03/29 02:47:38;;;;;;;;;;;3.90;99.90;;;;;;21097805;28;19912;-78
2024/03/29 02:57:39;;;;;;;;;;;4.20;99.90;;;;;;21117529;28;19916;-79
2024/03/29 03:17:59;;;;;;;;;;;4.30;99.90;;;;;;21116085;28;20401;-78
2024/03/29 03:27:59;;;;;;;;;;;4.40;99.90;;;;;;21115945;28;19912;-79
2024/03/29 03:38:00;;;;;;;;;;;4.40;99.90;;;;;;21115852;28;19966;-78
2024/03/29 03:48:02;;;;;;;;;;;4.50;99.90;;;;;;21114218;28;19919;-78
2024/03/29 03:58:03;;;;;;;;;;;4.60;99.90;;;;;;21111109;28;19916;-78
2024/03/29 04:08:04;;;;;;;;;;;4.60;99.90;;;;;;21108234;28;20275;-77
2024/03/29 04:18:05;;;;;;;;;;;4.50;99.90;;;;;;21107541;28;19963;-79
2024/03/29 04:28:06;;;;;;;;;;;4.30;99.90;;;;;;21105625;28;19912;-78
2024/03/29 04:38:07;;;;;;;;;;;4.40;99.90;;;;;;21107095;28;20007;-79
2024/03/29 04:48:08;;;;;;;;;;;4.50;99.90;;;;;;21100825;28;20391;-78
2024/03/29 04:58:09;;;;;;;;;;;4.50;99.90;;;;;;21093837;28;19922;-77
2024/03/29 05:08:09;;;;;;;;;;;4.60;99.90;;;;;;21093890;28;19948;-77
2024/03/29 05:18:10;;;;;;;;;;;4.80;99.90;;;;;;21094834;28;20382;-77
2024/03/29 05:28:10;;;;;;;;;;;4.70;99.90;;;;;;21094106;28;20019;-78
2024/03/29 05:38:11;;;;;;;;;;;5.00;99.90;;;;;;21104811;28;19962;-78
2024/03/29 05:48:12;;;;;;;;;;;5.10;99.90;;;;;;21095167;28;20050;-78
2024/03/29 05:58:17;;;;;;;;;;;5.00;99.90;;;;;;21091936;28;20411;-78
2024/03/29 06:08:17;;;;;;;;;;;4.50;99.90;;;;;;21100310;28;19965;-76
2024/03/29 06:18:18;;;;;;;;;;;4.70;99.90;;;;;;21088089;28;19916;-77
2024/03/29 06:28:19;;;;;;;;;;;5.00;99.90;;;;;;21091108;28;19912;-76
2024/03/29 06:38:19;;;;;;;;;;;5.00;99.90;;;;;;21110065;28;19920;-79
2024/03/29 06:48:20;;;;;;;;;;;4.90;99.90;;;;;;21111832;28;19972;-79
2024/03/29 06:58:21;;;;;;;;;;;5.00;99.90;;;;;;21102361;28;19920;-78
2024/03/29 07:08:21;;;;;;;;;;;5.00;99.90;;;;;;21101813;28;19932;-79
2024/03/29 07:18:22;;;;;;;;;;;5.40;99.90;;;;;;21095080;28;19916;-77
2024/03/29 07:28:23;;;;;;;;;;;5.90;99.90;;;;;;21094797;28;20010;-79
2024/03/29 07:38:23;;;;;;;;;;;5.80;99.90;;;;;;21091886;28;19923;-77
2024/03/29 07:48:24;;;;;;;;;;;5.50;99.90;;;;;;21102024;28;19912;-77
2024/03/29 07:58:25;;;;;;;;;;;5.80;99.90;;;;;;21110830;28;19916;-77
2024/03/29 08:08:27;;;;;;;;;;;6.10;99.90;;;;;;21094010;28;19916;-77
2024/03/29 08:18:28;;;;;;;;;;;6.30;99.90;;;;;;21102321;28;19916;-76
2024/03/29 08:28:28;;;;;;;;;;;6.60;99.90;;;;;;21108133;28;19912;-80
2024/03/29 08:38:29;;;;;;;;;;;7.00;99.90;;;;;;21066237;28;19916;-80
2024/03/29 08:48:30;;;;;;;;;;;7.30;99.90;;;;;;21102982;28;20388;-79
2024/03/29 08:58:30;;;;;;;;;;;7.90;99.90;;;;;;21094998;28;19925;-79
2024/03/29 09:08:31;;;;;;;;;;;8.30;99.90;;;;;;21106546;28;19954;-77
2024/03/29 09:18:32;;;;;;;;;;;8.60;99.90;;;;;;21087320;28;20003;-78
2024/03/29 09:28:34;;;;;;;;;;;9.20;99.90;;;;;;21100802;28;20374;-80
2024/03/29 09:38:34;;;;;;;;;;;10.00;99.90;;;;;;21105883;28;19923;-77
2024/03/29 09:48:36;;;;;;;;;;;10.10;99.90;;;;;;21081116;28;20007;-75
2024/03/29 09:58:37;;;;;;;;;;;10.20;99.90;;;;;;21094072;28;19927;-80
2024/03/29 10:08:38;;;;;;;;;;;9.90;99.90;;;;;;21092098;28;19916;-80
2024/03/29 10:18:43;;;;;;;;;;;10.00;99.90;;;;;;21099893;28;20001;-81
2024/03/29 10:28:46;;;;;;;;;;;10.40;99.90;;;;;;21089488;28;21257;-78
2024/03/29 10:38:47;;;;;;;;;;;10.60;99.90;;;;;;21086653;28;21288;-80
2024/03/29 10:48:49;;;;;;;;;;;11.40;99.90;;;;;;21089478;28;19943;-81
2024/03/29 10:58:52;;;;;;;;;;;12.20;99.90;;;;;;21075696;28;19923;-76
2024/03/29 11:08:54;;;;;;;;;;;12.50;99.90;;;;;;21098713;28;19921;-81
2024/03/29 11:18:55;;;;;;;;;;;11.60;99.90;;;;;;21115280;28;19916;-79
2024/03/29 11:28:58;;;;;;;;;;;12.10;99.90;;;;;;21106859;28;19926;-79
2024/03/29 11:38:59;;;;;;;;;;;14.00;99.90;;;;;;21083850;28;19916;-79
2024/03/29 11:49:00;;;;;;;;;;;15.70;99.90;;;;;;21052478;28;20309;-79
2024/03/29 11:59:03;;;;;;;;;;;16.30;99.90;;;;;;21063588;28;19920;-79
2024/03/29 12:09:05;;;;;;;;;;;17.00;99.90;;;;;;21033744;28;20347;-79
2024/03/29 12:19:05;;;;;;;;;;;17.70;99.90;;;;;;21034337;28;20380;-79
2024/03/29 12:29:06;;;;;;;;;;;18.50;99.90;;;;;;21060132;28;19912;-78
2024/03/29 12:39:06;;;;;;;;;;;18.40;99.90;;;;;;21033433;28;19923;-79
2024/03/29 12:49:10;;;;;;;;;;;19.80;99.90;;;;;;21031977;28;19913;-79
2024/03/29 12:59:11;;;;;;;;;;;20.90;99.90;;;;;;21012827;28;19917;-79
2024/03/29 13:09:13;;;;;;;;;;;20.30;99.90;;;;;;21012690;28;20455;-78
2024/03/29 13:19:13;;;;;;;;;;;21.10;99.90;;;;;;21040662;28;19916;-78
2024/03/29 13:29:15;;;;;;;;;;;21.20;99.90;;;;;;21037213;28;19938;-79
2024/03/29 13:39:16;;;;;;;;;;;21.10;97.30;;;;;;21051125;28;19916;-79
2024/03/29 13:49:20;;;;;;;;;;;21.30;97.60;;;;;;21023101;28;19912;-79
2024/03/29 13:59:21;;;;;;;;;;;21.90;98.00;;;;;;21049587;28;20448;-78
2024/03/29 14:09:21;;;;;;;;;;;21.50;94.90;;;;;;21038549;28;19919;-79
2024/03/29 14:19:22;;;;;;;;;;;21.10;94.90;;;;;;21025954;28;19916;-79
2024/03/29 14:29:23;;;;;;;;;;;20.90;96.20;;;;;;21020646;28;19944;-79
2024/03/29 14:39:24;;;;;;;;;;;20.40;99.90;;;;;;21026132;28;20379;-79
2024/03/29 14:49:24;;;;;;;;;;;19.60;99.90;;;;;;21024448;28;19912;-78
2024/03/29 14:59:26;;;;;;;;;;;19.10;99.90;;;;;;21055449;28;19921;-79
2024/03/29 15:09:26;;;;;;;;;;;18.70;99.90;;;;;;21033423;28;19912;-79
2024/03/29 15:19:27;;;;;;;;;;;18.50;99.90;;;;;;21045676;28;19916;-79
2024/03/29 15:29:27;;;;;;;;;;;18.10;99.90;;;;;;21068388;28;19912;-78
2024/03/29 15:39:28;;;;;;;;;;;18.00;99.90;;;;;;21038011;28;19916;-78
2024/03/29 15:49:29;;;;;;;;;;;18.00;99.90;;;;;;21045620;28;20529;-78
2024/03/29 15:59:29;;;;;;;;;;;18.10;99.90;;;;;;21042026;28;20004;-77
2024/03/29 16:09:30;;;;;;;;;;;17.80;99.90;;;;;;21030374;28;20360;-77
2024/03/29 16:19:31;;;;;;;;;;;17.50;99.90;;;;;;21037247;28;19923;-77
2024/03/29 16:29:31;;;;;;;;;;;17.40;99.90;;;;;;21043801;28;20378;-77
2024/03/29 16:39:32;;;;;;;;;;;16.70;99.90;;;;;;21040895;28;19927;-77
2024/03/29 16:49:33;;;;;;;;;;;16.20;99.90;;;;;;21019640;28;19940;-77
2024/03/29 16:59:34;;;;;;;;;;;16.10;99.90;;;;;;21041833;28;19916;-77
2024/03/29 17:09:35;;;;;;;;;;;15.90;99.90;;;;;;21038363;28;19918;-77
2024/03/29 17:19:36;;;;;;;;;;;14.80;99.90;;;;;;21038257;28;19964;-78
2024/03/29 17:29:37;;;;;;;;;;;14.80;99.90;;;;;;21029662;28;19920;-77
2024/03/29 17:39:37;;;;;;;;;;;14.70;99.90;;;;;;21023072;28;19917;-77
2024/03/29 17:49:38;;;;;;;;;;;14.20;99.90;;;;;;21037296;28;19944;-76
2024/03/29 17:59:39;;;;;;;;;;;13.60;99.90;;;;;;21033047;28;19970;-78
2024/03/29 18:09:40;;;;;;;;;;;13.00;99.90;;;;;;21032683;28;19919;-78
2024/03/29 18:19:40;;;;;;;;;;;12.80;99.90;;;;;;21032335;28;19916;-76
2024/03/29 18:29:41;;;;;;;;;;;12.50;99.90;;;;;;21023513;28;19923;-75
2024/03/29 18:39:41;;;;;;;;;;;12.10;99.90;;;;;;21024913;28;20018;-77
2024/03/29 18:49:42;;;;;;;;;;;11.90;99.90;;;;;;21018690;28;20438;-77
2024/03/29 18:59:43;;;;;;;;;;;12.10;99.90;;;;;;21030470;28;19916;-78
2024/03/29 19:09:43;;;;;;;;;;;12.30;99.90;;;;;;21035030;28;20367;-78
2024/03/29 19:19:44;;;;;;;;;;;12.50;99.90;;;;;;21038985;28;19920;-79
2024/03/29 19:29:49;;;;;;;;;;;12.10;99.90;;;;;;21017374;28;20314;-77
2024/03/29 19:39:50;;;;;;;;;;;12.00;99.90;;;;;;21028617;28;19931;-78
2024/03/29 19:49:50;;;;;;;;;;;12.20;99.90;;;;;;21018250;28;19912;-79
2024/03/29 19:59:51;;;;;;;;;;;11.70;99.90;;;;;;21038111;28;20351;-78
2024/03/29 20:09:52;;;;;;;;;;;11.70;99.90;;;;;;21045151;28;19999;-77
2024/03/29 20:19:53;;;;;;;;;;;11.50;99.90;;;;;;21038054;28;20050;-77
2024/03/29 20:29:54;;;;;;;;;;;11.80;99.90;;;;;;21042518;28;19919;-77
2024/03/29 20:39:55;;;;;;;;;;;11.40;99.90;;;;;;21049101;28;20406;-77
2024/03/29 20:49:55;;;;;;;;;;;11.50;99.90;;;;;;21031643;28;19947;-78
2024/03/29 20:59:57;;;;;;;;;;;11.50;99.90;;;;;;21030246;28;19962;-78
2024/03/29 21:09:58;;;;;;;;;;;11.30;99.90;;;;;;21042792;28;19992;-77
2024/03/29 21:19:59;;;;;;;;;;;10.60;99.90;;;;;;21042105;28;19920;-78
2024/03/29 21:30:00;;;;;;;;;;;10.10;99.90;;;;;;21053044;28;19912;-78
2024/03/29 21:40:01;;;;;;;;;;;10.80;99.90;;;;;;21040806;28;19920;-77
2024/03/29 21:50:02;;;;;;;;;;;10.80;99.90;;;;;;21054666;28;19938;-76
2024/03/29 22:00:03;;;;;;;;;;;10.50;99.90;;;;;;21046694;28;20390;-76
2024/03/29 22:10:05;;;;;;;;;;;10.40;99.90;;;;;;21035154;28;19916;-77
2024/03/29 22:20:06;;;;;;;;;;;10.10;99.90;;;;;;21034272;28;20390;-76
2024/03/29 22:30:06;;;;;;;;;;;10.40;99.90;;;;;;21036592;28;20328;-77
2024/03/29 22:40:07;;;;;;;;;;;11.10;99.90;;;;;;21028342;28;19951;-76
2024/03/29 22:50:08;;;;;;;;;;;11.30;99.90;;;;;;21026711;28;19951;-76
2024/03/29 23:00:10;;;;;;;;;;;11.00;99.90;;;;;;21036689;28;19916;-77
2024/03/29 23:10:11;;;;;;;;;;;11.10;99.90;;;;;;21046913;28;20558;-76
2024/03/29 23:20:12;;;;;;;;;;;11.10;99.90;;;;;;21058152;28;20003;-77
2024/03/29 23:30:13;;;;;;;;;;;10.60;99.90;;;;;;21063236;28;19916;-77
2024/03/29 23:40:13;;;;;;;;;;;10.00;99.90;;;;;;21066825;28;19963;-78
2024/03/29 23:50:14;;;;;;;;;;;9.80;99.90;;;;;;21035889;28;19939;-77
